createdAt,value
2022-09-23T00:01:14.735Z,30.39
2022-09-23T00:03:43.100Z,30.54
2022-09-23T00:06:15.098Z,30.59
2022-09-23T00:08:42.341Z,30.43
2022-09-23T00:11:11.109Z,30.44
2022-09-23T00:13:39.358Z,30.47
2022-09-23T00:16:07.430Z,30.43
2022-09-23T00:18:34.848Z,30.46
2022-09-23T00:21:06.351Z,30.33
2022-09-23T00:23:33.788Z,30.49
2022-09-23T00:26:01.660Z,30.50
2022-09-23T00:28:29.325Z,30.58
2022-09-23T00:30:56.554Z,30.67
2022-09-23T00:33:23.976Z,30.86
2022-09-23T00:35:51.350Z,30.54
2022-09-23T00:38:18.770Z,30.50
2022-09-23T00:40:46.376Z,30.66
2022-09-23T00:43:15.006Z,30.64
2022-09-23T00:45:46.813Z,30.82
2022-09-23T00:48:20.089Z,30.64
2022-09-23T00:50:53.557Z,30.63
2022-09-23T00:53:22.868Z,30.69
2022-09-23T00:55:56.579Z,30.52
2022-09-23T00:58:26.893Z,30.64
2022-09-23T01:00:54.913Z,30.65
2022-09-23T01:03:23.023Z,30.64
2022-09-23T01:05:50.466Z,30.84
2022-09-23T01:08:18.291Z,30.67
2022-09-23T01:10:52.540Z,30.75
2022-09-23T01:13:32.457Z,30.95
2022-09-23T01:16:13.914Z,30.64
2022-09-23T01:18:57.280Z,30.80
2022-09-23T01:21:24.721Z,30.73
2022-09-23T01:23:52.917Z,30.77
2022-09-23T01:26:38.623Z,30.98
2022-09-23T01:29:17.899Z,30.90
2022-09-23T01:31:57.146Z,30.82
2022-09-23T01:34:44.467Z,30.81
2022-09-23T01:37:21.190Z,30.71
2022-09-23T01:39:55.899Z,30.81
2022-09-23T01:42:30.621Z,30.86
2022-09-23T01:45:14.108Z,30.67
2022-09-23T01:47:56.105Z,30.79
2022-09-23T01:50:47.464Z,30.92
2022-09-23T01:53:28.412Z,30.93
2022-09-23T01:55:57.906Z,30.89
2022-09-23T01:58:37.325Z,30.90
2022-09-23T02:01:07.276Z,30.96
2022-09-23T02:03:42.179Z,30.79
2022-09-23T02:06:15.534Z,30.81
2022-09-23T02:09:01.418Z,30.82
2022-09-23T02:11:29.240Z,30.85
2022-09-23T02:13:59.030Z,30.92
2022-09-23T02:16:52.839Z,30.73
2022-09-23T02:19:32.037Z,30.74
2022-09-23T02:22:12.939Z,30.62
2022-09-23T02:24:40.345Z,30.60
2022-09-23T02:27:14.601Z,30.85
2022-09-23T02:29:45.040Z,30.77
2022-09-23T02:32:19.854Z,30.78
2022-09-23T02:34:53.558Z,30.66
2022-09-23T02:37:26.753Z,30.69
2022-09-23T02:39:56.892Z,30.64
2022-09-23T02:42:29.084Z,30.61
2022-09-23T02:44:56.510Z,30.80
2022-09-23T02:47:27.573Z,30.56
2022-09-23T02:49:56.435Z,30.69
2022-09-23T02:52:25.056Z,30.65
2022-09-23T02:54:52.707Z,30.53
2022-09-23T02:57:19.981Z,30.65
2022-09-23T02:59:47.256Z,30.72
2022-09-23T03:02:21.825Z,30.59
2022-09-23T03:04:58.652Z,30.66
2022-09-23T03:07:36.052Z,30.64
2022-09-23T03:10:17.788Z,30.67
2022-09-23T03:12:54.241Z,30.73
2022-09-23T03:15:25.241Z,30.75
2022-09-23T03:18:11.829Z,30.81
2022-09-23T03:20:49.574Z,30.76
2022-09-23T03:23:19.404Z,30.63
2022-09-23T03:25:49.001Z,30.70
2022-09-23T03:28:17.649Z,30.76
2022-09-23T03:30:45.359Z,30.89
2022-09-23T03:33:16.802Z,30.75
2022-09-23T03:36:10.993Z,30.70
2022-09-23T03:38:41.883Z,30.71
2022-09-23T03:41:12.082Z,30.71
2022-09-23T03:43:39.372Z,30.61
2022-09-23T03:46:08.300Z,30.59
2022-09-23T03:48:35.678Z,30.91
2022-09-23T03:51:13.804Z,30.85
2022-09-23T03:53:41.343Z,30.89
2022-09-23T03:56:08.476Z,31.55
2022-09-23T03:58:35.637Z,31.73
2022-09-23T04:01:02.919Z,31.22
2022-09-23T04:03:30.351Z,31.49
2022-09-23T04:05:57.515Z,31.52
2022-09-23T04:08:24.818Z,31.56
2022-09-23T04:10:54.839Z,31.32
2022-09-23T04:13:22.216Z,31.41
2022-09-23T04:15:50.130Z,31.63
2022-09-23T04:18:17.373Z,31.41
2022-09-23T04:20:44.620Z,31.35
2022-09-23T04:23:11.861Z,31.66
2022-09-23T04:25:48.864Z,31.72
2022-09-23T04:28:16.419Z,31.64
2022-09-23T04:30:44.357Z,31.36
2022-09-23T04:33:12.318Z,31.46
2022-09-23T04:35:40.561Z,31.56
2022-09-23T04:38:08.273Z,31.73
2022-09-23T04:40:36.001Z,31.67
2022-09-23T04:43:03.348Z,31.54
2022-09-23T04:45:30.597Z,31.60
2022-09-23T04:47:58.515Z,31.53
2022-09-23T04:50:26.456Z,31.81
2022-09-23T04:52:54.217Z,31.57
2022-09-23T04:55:22.200Z,31.58
2022-09-23T04:57:49.533Z,31.74
2022-09-23T05:00:16.810Z,31.59
2022-09-23T05:02:48.218Z,31.60
2022-09-23T05:05:21.311Z,31.57
2022-09-23T05:07:48.715Z,31.71
2022-09-23T05:10:15.981Z,31.62
2022-09-23T05:12:43.334Z,31.56
2022-09-23T05:15:10.532Z,31.65
2022-09-23T05:17:37.787Z,31.56
2022-09-23T05:20:05.211Z,31.50
2022-09-23T05:22:32.503Z,31.20
2022-09-23T05:25:01.641Z,31.61
2022-09-23T05:27:29.195Z,31.56
2022-09-23T05:29:56.351Z,31.78
2022-09-23T05:32:23.660Z,31.70
2022-09-23T05:34:51.062Z,31.66
2022-09-23T05:37:18.256Z,30.44
2022-09-23T05:39:45.430Z,30.86
2022-09-23T05:42:12.749Z,30.38
2022-09-23T05:44:40.049Z,31.26
2022-09-23T05:47:07.580Z,31.34
2022-09-23T05:49:55.623Z,31.36
2022-09-23T05:52:24.140Z,31.58
2022-09-23T05:54:51.400Z,31.52
2022-09-23T05:57:19.080Z,31.60
2022-09-23T05:59:47.794Z,31.70
2022-09-23T06:02:15.458Z,31.39
2022-09-23T06:04:43.159Z,31.17
2022-09-23T06:07:10.500Z,31.23
2022-09-23T06:09:37.821Z,31.21
2022-09-23T06:12:05.233Z,31.32
2022-09-23T06:14:32.388Z,31.05
2022-09-23T06:16:59.648Z,31.24
2022-09-23T06:19:26.896Z,31.22
2022-09-23T06:21:54.573Z,31.35
2022-09-23T06:24:25.993Z,31.32
2022-09-23T06:26:56.040Z,31.36
2022-09-23T06:29:23.565Z,31.47
2022-09-23T06:31:50.808Z,31.60
2022-09-23T06:34:19.380Z,31.50
2022-09-23T06:36:47.171Z,31.31
2022-09-23T06:39:15.046Z,31.55
2022-09-23T06:41:42.312Z,31.81
2022-09-23T06:44:13.343Z,31.35
2022-09-23T06:46:40.874Z,31.58
2022-09-23T06:49:08.127Z,31.41
2022-09-23T06:51:35.436Z,31.36
2022-09-23T06:54:02.768Z,31.20
2022-09-23T06:56:32.547Z,31.25
2022-09-23T06:59:03.488Z,31.46
2022-09-23T07:01:30.745Z,31.44
2022-09-23T07:03:58.062Z,31.20
2022-09-23T07:06:25.300Z,31.29
2022-09-23T07:08:53.253Z,31.22
2022-09-23T07:11:22.693Z,31.27
2022-09-23T07:13:50.085Z,31.15
2022-09-23T07:16:17.432Z,31.14
2022-09-23T07:18:45.136Z,31.15
2022-09-23T07:21:17.191Z,31.66
2022-09-23T07:23:46.073Z,31.42
2022-09-23T07:26:13.984Z,31.22
2022-09-23T07:28:41.448Z,31.43
2022-09-23T07:31:12.979Z,31.41
2022-09-23T07:33:44.611Z,31.15
2022-09-23T07:36:17.359Z,31.30
2022-09-23T07:38:45.903Z,31.27
2022-09-23T07:41:14.786Z,31.22
2022-09-23T07:43:42.042Z,31.58
2022-09-23T07:46:11.170Z,31.61
2022-09-23T07:48:38.839Z,31.84
2022-09-23T07:51:07.393Z,31.61
2022-09-23T07:53:34.705Z,31.86
2022-09-23T07:56:04.578Z,32.06
2022-09-23T07:58:32.520Z,31.85
2022-09-23T08:01:08.154Z,32.07
2022-09-23T08:03:36.498Z,31.98
2022-09-23T08:06:10.917Z,31.91
2022-09-23T08:08:40.758Z,31.59
2022-09-23T08:11:10.063Z,31.45
2022-09-23T08:13:37.698Z,32.02
2022-09-23T08:16:05.339Z,31.86
2022-09-23T08:18:32.985Z,31.89
2022-09-23T08:21:00.187Z,31.72
2022-09-23T08:23:27.867Z,31.53
2022-09-23T08:26:00.151Z,31.50
2022-09-23T08:28:27.562Z,31.66
2022-09-23T08:30:55.123Z,31.55
2022-09-23T08:33:23.817Z,31.63
2022-09-23T08:35:51.515Z,31.38
2022-09-23T08:38:19.411Z,31.62
2022-09-23T08:40:49.008Z,31.45
2022-09-23T08:43:32.922Z,31.51
2022-09-23T08:46:04.794Z,31.73
2022-09-23T08:48:37.500Z,31.73
2022-09-23T08:51:06.473Z,31.69
2022-09-23T08:53:37.039Z,31.63
2022-09-23T08:56:07.325Z,31.70
2022-09-23T08:58:35.236Z,31.53
2022-09-23T09:01:21.330Z,31.74
2022-09-23T09:03:53.898Z,31.72
2022-09-23T09:06:31.112Z,32.17
2022-09-23T09:09:01.031Z,31.93
2022-09-23T09:11:37.170Z,31.75
2022-09-23T09:14:18.988Z,32.08
2022-09-23T09:17:06.218Z,31.69
2022-09-23T09:19:42.738Z,32.08
2022-09-23T09:22:14.366Z,32.01
2022-09-23T09:24:45.697Z,31.95
2022-09-23T09:27:13.368Z,31.83
2022-09-23T09:29:49.771Z,31.99
2022-09-23T09:32:33.789Z,31.87
2022-09-23T09:35:05.704Z,32.09
2022-09-23T09:37:33.716Z,31.76
2022-09-23T09:40:01.072Z,31.83
2022-09-23T09:42:37.481Z,31.94
2022-09-23T09:45:11.280Z,32.40
2022-09-23T09:47:51.664Z,32.26
2022-09-23T09:50:39.039Z,32.05
2022-09-23T09:53:16.585Z,32.04
2022-09-23T09:55:44.467Z,32.31
2022-09-23T09:58:16.445Z,32.03
2022-09-23T10:00:45.748Z,32.05
2022-09-23T10:03:13.381Z,32.20
2022-09-23T10:05:46.811Z,32.25
2022-09-23T10:08:32.314Z,32.01
2022-09-23T10:10:59.564Z,32.16
2022-09-23T10:13:27.344Z,31.94
2022-09-23T10:15:55.124Z,32.19
2022-09-23T10:18:22.271Z,31.92
2022-09-23T10:20:49.518Z,31.92
2022-09-23T10:23:21.863Z,32.06
2022-09-23T10:26:00.225Z,32.15
2022-09-23T10:28:32.242Z,32.17
2022-09-23T10:31:07.657Z,31.89
2022-09-23T10:33:39.779Z,31.93
2022-09-23T10:36:10.671Z,32.00
2022-09-23T10:38:37.944Z,32.16
2022-09-23T10:41:24.255Z,32.37
2022-09-23T10:44:06.943Z,32.12
2022-09-23T10:46:39.120Z,32.25
2022-09-23T10:49:10.181Z,32.10
2022-09-23T10:51:45.011Z,32.28
2022-09-23T10:54:25.748Z,32.15
2022-09-23T10:57:02.295Z,32.12
2022-09-23T10:59:43.554Z,32.32
2022-09-23T11:02:23.229Z,32.28
2022-09-23T11:04:54.762Z,32.13
2022-09-23T11:07:22.011Z,32.37
2022-09-23T11:09:49.236Z,32.21
2022-09-23T11:12:29.552Z,32.13
2022-09-23T11:15:00.174Z,32.16
2022-09-23T11:17:36.548Z,32.23
2022-09-23T11:20:03.767Z,32.20
2022-09-23T11:22:38.002Z,32.35
2022-09-23T11:25:08.471Z,32.05
2022-09-23T11:27:38.672Z,32.39
2022-09-23T11:30:12.708Z,32.47
2022-09-23T11:32:51.904Z,32.23
2022-09-23T11:35:22.473Z,32.04
2022-09-23T11:37:55.441Z,32.55
2022-09-23T11:40:33.711Z,32.43
2022-09-23T11:43:24.499Z,32.48
2022-09-23T11:45:58.022Z,32.44
2022-09-23T11:48:30.118Z,32.10
2022-09-23T11:51:00.628Z,32.10
2022-09-23T11:53:36.616Z,32.12
2022-09-23T11:56:07.681Z,32.27
2022-09-23T11:58:44.392Z,32.26
2022-09-23T12:01:38.554Z,32.24
2022-09-23T12:04:19.794Z,32.11
2022-09-23T12:06:52.740Z,32.26
2022-09-23T12:09:53.990Z,32.54
2022-09-23T12:12:26.969Z,32.55
2022-09-23T12:15:00.345Z,32.60
2022-09-23T12:17:43.283Z,32.15
2022-09-23T12:20:19.552Z,32.32
2022-09-23T12:22:47.537Z,32.05
2022-09-23T12:25:20.804Z,32.16
2022-09-23T12:27:50.483Z,32.47
2022-09-23T12:30:22.211Z,32.33
2022-09-23T12:32:49.793Z,32.03
2022-09-23T12:35:32.263Z,32.27
2022-09-23T12:38:01.249Z,32.02
2022-09-23T12:40:43.963Z,32.18
2022-09-23T12:43:29.856Z,32.19
2022-09-23T12:46:16.674Z,32.27
2022-09-23T12:48:45.911Z,32.11
2022-09-23T12:51:16.332Z,32.14
2022-09-23T12:53:57.667Z,32.21
2022-09-23T12:56:47.701Z,32.38
2022-09-23T12:59:24.006Z,31.91
2022-09-23T13:01:51.504Z,32.15
2022-09-23T13:04:52.535Z,32.19
2022-09-23T13:07:27.227Z,32.20
2022-09-23T13:10:03.227Z,32.24
2022-09-23T13:12:34.754Z,32.19
2022-09-23T13:15:05.755Z,32.18
2022-09-23T13:17:36.028Z,32.11
2022-09-23T13:20:06.413Z,32.19
2022-09-23T13:22:48.869Z,32.18
2022-09-23T13:29:00.186Z,31.95
2022-09-23T13:31:27.484Z,32.24
2022-09-23T13:33:59.763Z,31.94
2022-09-23T13:36:27.105Z,32.12
2022-09-23T13:39:13.111Z,32.13
2022-09-23T13:41:41.701Z,32.20
2022-09-23T13:44:13.586Z,32.26
2022-09-23T13:46:45.934Z,32.18
2022-09-23T13:49:24.446Z,32.39
2022-09-23T13:51:54.268Z,32.29
2022-09-23T13:54:29.086Z,32.27
2022-09-23T13:56:56.803Z,32.55
2022-09-23T13:59:26.069Z,32.32
2022-09-23T14:02:04.356Z,32.25
2022-09-23T14:04:31.821Z,32.21
2022-09-23T14:06:59.260Z,32.38
2022-09-23T14:09:29.227Z,32.13
2022-09-23T14:12:00.645Z,32.31
2022-09-23T14:14:29.002Z,32.32
2022-09-23T14:16:57.096Z,32.20
2022-09-23T14:19:25.783Z,32.23
2022-09-23T14:21:54.287Z,32.40
2022-09-23T14:24:21.594Z,32.23
2022-09-23T14:26:52.020Z,32.16
2022-09-23T14:29:39.566Z,31.99
2022-09-23T14:32:11.131Z,32.19
2022-09-23T14:34:50.029Z,32.31
2022-09-23T14:37:48.294Z,32.30
2022-09-23T14:40:19.792Z,32.07
2022-09-23T14:42:52.180Z,32.06
2022-09-23T14:45:21.771Z,32.24
2022-09-23T14:47:51.533Z,32.06
2022-09-23T14:50:39.488Z,32.01
2022-09-23T14:53:27.022Z,32.41
2022-09-23T14:55:58.950Z,31.96
2022-09-23T14:58:31.238Z,31.80
2022-09-23T15:01:00.407Z,32.21
2022-09-23T15:03:28.501Z,31.92
2022-09-23T15:06:07.732Z,31.76
2022-09-23T15:08:36.039Z,31.83
2022-09-23T15:11:07.837Z,32.08
2022-09-23T15:13:40.680Z,31.91
2022-09-23T15:16:08.192Z,31.96
2022-09-23T15:18:41.602Z,31.84
2022-09-23T15:21:10.015Z,31.82
2022-09-23T15:23:41.557Z,32.06
2022-09-23T15:26:19.185Z,31.95
2022-09-23T15:28:47.065Z,31.67
2022-09-23T15:31:16.036Z,31.89
2022-09-23T15:33:47.613Z,31.98
2022-09-23T15:36:17.513Z,31.73
2022-09-23T15:38:45.163Z,31.90
2022-09-23T15:41:14.387Z,31.88
2022-09-23T15:43:41.991Z,31.78
2022-09-23T15:46:14.185Z,31.66
2022-09-23T15:48:43.754Z,31.50
2022-09-23T15:51:14.280Z,31.53
2022-09-23T15:53:41.469Z,31.60
2022-09-23T15:56:08.785Z,31.57
2022-09-23T15:58:36.665Z,31.45
2022-09-23T16:01:04.175Z,31.46
2022-09-23T16:03:31.583Z,31.62
2022-09-23T16:06:01.250Z,31.62
2022-09-23T16:08:29.229Z,31.45
2022-09-23T16:10:56.605Z,31.47
2022-09-23T16:13:23.944Z,31.52
2022-09-23T16:15:51.150Z,31.45
2022-09-23T16:18:18.395Z,31.33
2022-09-23T16:20:46.469Z,31.36
2022-09-23T16:23:34.311Z,31.33
2022-09-23T16:26:03.224Z,31.56
2022-09-23T16:28:30.453Z,31.51
2022-09-23T16:30:57.844Z,31.58
2022-09-23T16:33:25.049Z,31.52
2022-09-23T16:35:52.574Z,31.54
2022-09-23T16:38:21.125Z,31.45
2022-09-23T16:40:48.565Z,31.53
2022-09-23T16:43:16.009Z,31.56
2022-09-23T16:45:43.447Z,31.56
2022-09-23T16:48:11.509Z,31.68
2022-09-23T16:50:39.549Z,31.37
2022-09-23T16:53:06.693Z,31.61
2022-09-23T16:55:33.896Z,31.33
2022-09-23T16:58:01.095Z,31.30
2022-09-23T17:00:46.816Z,31.39
2022-09-23T17:03:32.422Z,31.37
2022-09-23T17:06:03.415Z,31.67
2022-09-23T17:08:33.378Z,31.66
2022-09-23T17:11:00.959Z,31.56
2022-09-23T17:13:28.459Z,31.50
2022-09-23T17:15:55.798Z,31.62
2022-09-23T17:18:23.353Z,31.56
2022-09-23T17:20:57.994Z,31.85
2022-09-23T17:23:26.519Z,31.41
2022-09-23T17:25:54.072Z,31.66
2022-09-23T17:28:21.408Z,31.43
2022-09-23T17:30:50.641Z,31.47
2022-09-23T17:33:19.960Z,31.59
2022-09-23T17:35:47.147Z,31.62
2022-09-23T17:38:14.394Z,31.52
2022-09-23T17:40:42.126Z,31.69
2022-09-23T17:43:09.440Z,31.87
2022-09-23T17:45:37.272Z,31.57
2022-09-23T17:48:04.521Z,31.38
2022-09-23T17:50:31.870Z,31.47
2022-09-23T17:53:00.465Z,31.62
2022-09-23T17:55:27.762Z,31.62
2022-09-23T17:57:54.943Z,31.54
2022-09-23T18:00:22.243Z,31.35
2022-09-23T18:02:52.512Z,31.57
2022-09-23T18:05:19.803Z,31.55
2022-09-23T18:07:47.067Z,31.42
2022-09-23T18:10:14.383Z,31.26
2022-09-23T18:12:41.549Z,31.31
2022-09-23T18:15:09.027Z,31.28
2022-09-23T18:17:36.215Z,31.42
2022-09-23T18:20:03.665Z,31.51
2022-09-23T18:22:30.881Z,31.54
2022-09-23T18:24:58.941Z,31.45
2022-09-23T18:27:26.625Z,31.33
2022-09-23T18:29:54.005Z,31.43
2022-09-23T18:32:21.181Z,31.32
2022-09-23T18:34:48.503Z,31.26
2022-09-23T18:37:16.396Z,31.40
2022-09-23T18:39:43.759Z,31.52
2022-09-23T18:42:12.423Z,31.46
2022-09-23T18:44:40.773Z,31.36
2022-09-23T18:47:08.037Z,31.35
2022-09-23T18:49:53.704Z,31.31
2022-09-23T18:52:21.132Z,31.71
2022-09-23T18:54:50.790Z,31.40
2022-09-23T18:57:21.610Z,31.58
2022-09-23T18:59:48.767Z,31.55
2022-09-23T19:02:17.054Z,31.49
2022-09-23T19:04:44.286Z,31.27
2022-09-23T19:07:11.947Z,31.51
2022-09-23T19:09:39.125Z,31.42
2022-09-23T19:12:06.490Z,31.38
2022-09-23T19:14:33.867Z,31.41
2022-09-23T19:17:01.269Z,31.46
2022-09-23T19:19:30.174Z,31.42
2022-09-23T19:21:57.463Z,31.43
2022-09-23T19:24:24.647Z,31.33
2022-09-23T19:26:54.049Z,31.36
2022-09-23T19:29:21.929Z,31.34
2022-09-23T19:31:49.384Z,31.34
2022-09-23T19:34:18.088Z,31.33
2022-09-23T19:36:46.653Z,31.39
2022-09-23T19:39:17.400Z,31.42
2022-09-23T19:41:45.056Z,31.29
2022-09-23T19:44:12.469Z,31.43
2022-09-23T19:46:42.885Z,31.28
2022-09-23T19:49:11.424Z,31.28
2022-09-23T19:51:39.158Z,31.29
2022-09-23T19:54:07.307Z,31.32
2022-09-23T19:56:34.753Z,31.41
2022-09-23T19:59:03.143Z,31.12
2022-09-23T20:01:30.574Z,31.26
2022-09-23T20:03:58.018Z,31.35
2022-09-23T20:06:25.308Z,31.33
2022-09-23T20:08:53.065Z,31.24
2022-09-23T20:11:24.792Z,31.32
2022-09-23T20:14:01.009Z,31.40
2022-09-23T20:16:32.169Z,31.26
2022-09-23T20:19:00.442Z,31.24
2022-09-23T20:21:29.215Z,31.26
2022-09-23T20:23:57.269Z,31.35
2022-09-23T20:26:43.163Z,31.31
2022-09-23T20:29:11.128Z,31.33
2022-09-23T20:31:40.462Z,31.42
2022-09-23T20:34:08.507Z,31.17
2022-09-23T20:36:36.173Z,31.36
2022-09-23T20:39:05.979Z,31.33
2022-09-23T20:41:37.353Z,31.26
2022-09-23T20:44:11.636Z,31.19
2022-09-23T20:46:39.082Z,31.26
2022-09-23T20:49:07.954Z,31.10
2022-09-23T20:51:38.343Z,31.11
2022-09-23T20:54:06.927Z,31.09
2022-09-23T20:56:34.138Z,31.13
2022-09-23T20:59:02.086Z,31.19
2022-09-23T21:01:29.336Z,31.22
2022-09-23T21:03:56.695Z,31.49
2022-09-23T21:06:26.584Z,31.48
2022-09-23T21:08:54.653Z,31.30
2022-09-23T21:11:22.049Z,31.32
2022-09-23T21:13:50.471Z,31.34
2022-09-23T21:16:19.139Z,31.30
2022-09-23T21:18:46.867Z,31.31
2022-09-23T21:21:14.554Z,31.17
2022-09-23T21:23:43.411Z,31.20
2022-09-23T21:26:12.151Z,31.22
2022-09-23T21:28:40.484Z,31.19
2022-09-23T21:31:28.013Z,31.15
2022-09-23T21:33:56.487Z,31.14
2022-09-23T21:36:24.822Z,31.26
2022-09-23T21:38:52.566Z,31.20
2022-09-23T21:41:20.265Z,31.16
2022-09-23T21:43:48.763Z,31.14
2022-09-23T21:46:20.225Z,31.13
2022-09-23T21:48:49.945Z,30.99
2022-09-23T21:51:23.109Z,31.00
2022-09-23T21:53:50.574Z,31.31
2022-09-23T21:56:24.894Z,31.24
2022-09-23T21:58:53.793Z,31.29
2022-09-23T22:01:21.021Z,31.24
2022-09-23T22:03:58.350Z,31.12
2022-09-23T22:06:27.463Z,31.08
2022-09-23T22:09:01.953Z,31.07
2022-09-23T22:11:48.964Z,31.02
2022-09-23T22:14:17.360Z,31.24
2022-09-23T22:16:44.549Z,31.09
2022-09-23T22:19:13.658Z,31.01
2022-09-23T22:21:42.088Z,31.01
2022-09-23T22:24:10.166Z,31.07
2022-09-23T22:26:39.161Z,31.24
2022-09-23T22:29:26.309Z,31.27
2022-09-23T22:32:12.066Z,31.20
2022-09-23T22:34:51.415Z,31.17
2022-09-23T22:37:20.868Z,30.94
2022-09-23T22:39:48.265Z,30.85
2022-09-23T22:42:16.173Z,31.21
2022-09-23T22:44:43.390Z,31.31
2022-09-23T22:47:10.808Z,31.12
2022-09-23T22:49:38.017Z,31.17
2022-09-23T22:52:08.067Z,31.24
2022-09-23T22:54:36.279Z,30.88
2022-09-23T22:57:04.039Z,31.00
2022-09-23T22:59:31.263Z,30.96
2022-09-23T23:02:03.125Z,30.95
2022-09-23T23:04:31.053Z,31.07
2022-09-23T23:07:02.303Z,31.31
2022-09-23T23:09:29.527Z,30.99
2022-09-23T23:11:56.704Z,31.10
2022-09-23T23:14:24.470Z,31.30
2022-09-23T23:16:51.687Z,31.13
2022-09-23T23:19:19.266Z,31.02
2022-09-23T23:21:47.262Z,31.05
2022-09-23T23:24:16.422Z,30.97
2022-09-23T23:26:44.015Z,31.04
2022-09-23T23:29:12.049Z,31.01
2022-09-23T23:31:39.546Z,31.05
2022-09-23T23:34:08.427Z,30.87
2022-09-23T23:36:35.724Z,30.91
2022-09-23T23:39:02.969Z,31.07
2022-09-23T23:41:31.413Z,31.01
2022-09-23T23:43:59.211Z,30.96
2022-09-23T23:46:28.549Z,30.94
2022-09-23T23:48:56.919Z,30.82
2022-09-23T23:51:26.563Z,30.92
2022-09-23T23:53:54.647Z,30.89
2022-09-23T23:56:25.299Z,30.93
2022-09-23T23:58:56.412Z,31.06
